createdAt,value
2019-02-22T00:01:53.033Z,99.90
2019-02-22T00:04:22.503Z,99.90
2019-02-22T00:06:52.098Z,99.90
2019-02-22T00:09:21.575Z,99.90
2019-02-22T00:11:51.045Z,99.90
2019-02-22T00:14:20.549Z,99.90
2019-02-22T00:16:50.019Z,99.90
2019-02-22T00:19:19.492Z,99.90
2019-02-22T00:21:48.960Z,99.90
2019-02-22T00:24:18.465Z,99.90
2019-02-22T00:26:47.939Z,99.90
2019-02-22T00:29:17.422Z,99.90
2019-02-22T00:31:46.894Z,99.90
2019-02-22T00:34:16.405Z,99.90
2019-02-22T00:36:46.062Z,99.90
2019-02-22T00:39:15.499Z,99.90
2019-02-22T00:41:44.954Z,99.90
2019-02-22T00:44:14.447Z,99.90
2019-02-22T00:46:43.922Z,99.90
2019-02-22T00:49:13.393Z,99.90
2019-02-22T00:51:42.897Z,99.90
2019-02-22T00:54:12.389Z,99.90
2019-02-22T00:56:42.006Z,99.90
2019-02-22T00:59:11.523Z,99.90
2019-02-22T01:01:40.956Z,99.90
2019-02-22T01:04:10.425Z,99.90
2019-02-22T01:06:39.914Z,99.90
2019-02-22T01:09:09.383Z,99.90
2019-02-22T01:11:38.879Z,99.90
2019-02-22T01:14:08.443Z,99.90
2019-02-22T01:16:37.912Z,99.90
2019-02-22T01:19:07.407Z,99.90
2019-02-22T01:21:36.860Z,99.90
2019-02-22T01:24:06.353Z,99.90
2019-02-22T01:26:35.836Z,99.90
2019-02-22T01:29:05.325Z,99.90
2019-02-22T01:31:34.791Z,99.90
2019-02-22T01:34:04.379Z,99.90
2019-02-22T01:36:33.940Z,99.90
2019-02-22T01:39:05.041Z,99.90
2019-02-22T01:41:34.531Z,99.90
2019-02-22T01:44:03.992Z,99.90
2019-02-22T01:46:33.469Z,99.90
2019-02-22T01:49:03.065Z,99.90
2019-02-22T01:51:32.524Z,99.90
2019-02-22T01:54:01.989Z,99.90
2019-02-22T01:56:31.488Z,99.90
2019-02-22T01:59:00.956Z,99.90
2019-02-22T02:01:30.429Z,99.90
2019-02-22T02:03:59.930Z,99.90
2019-02-22T02:06:29.397Z,99.90
2019-02-22T02:08:58.858Z,99.90
2019-02-22T02:11:28.356Z,99.90
2019-02-22T02:13:57.817Z,99.90
2019-02-22T02:16:27.381Z,99.90
2019-02-22T02:18:56.872Z,99.90
2019-02-22T02:21:26.328Z,99.90
2019-02-22T02:23:55.789Z,99.90
2019-02-22T02:26:25.294Z,99.90
2019-02-22T02:28:54.752Z,99.90
2019-02-22T02:31:24.202Z,99.90
2019-02-22T02:33:53.706Z,99.90
2019-02-22T02:36:23.100Z,99.90
2019-02-22T02:38:52.558Z,99.90
2019-02-22T02:41:22.055Z,99.90
2019-02-22T02:43:51.513Z,99.90
2019-02-22T02:46:20.979Z,99.90
2019-02-22T02:48:50.472Z,99.90
2019-02-22T02:51:19.870Z,99.90
2019-02-22T02:53:49.343Z,99.90
2019-02-22T02:56:18.822Z,99.90
2019-02-22T02:58:48.289Z,99.90
2019-02-22T03:01:17.875Z,99.90
2019-02-22T03:03:47.339Z,99.90
2019-02-22T03:06:27.191Z,99.90
2019-02-22T03:08:56.654Z,99.90
2019-02-22T03:11:26.114Z,99.90
2019-02-22T03:13:55.606Z,99.90
2019-02-22T03:16:25.061Z,99.90
2019-02-22T03:18:54.516Z,99.90
2019-02-22T03:21:24.006Z,99.90
2019-02-22T03:23:53.473Z,99.90
2019-02-22T03:26:22.927Z,99.90
2019-02-22T03:28:52.424Z,99.90
2019-02-22T03:31:21.910Z,99.90
2019-02-22T03:33:51.371Z,99.90
2019-02-22T03:36:20.863Z,99.90
2019-02-22T03:38:50.375Z,99.90
2019-02-22T03:41:31.933Z,99.90
2019-02-22T03:43:51.193Z,99.90
2019-02-22T03:46:23.800Z,99.90
2019-02-22T03:48:53.280Z,99.90
2019-02-22T03:51:22.777Z,99.90
2019-02-22T03:53:53.047Z,99.90
2019-02-22T03:56:22.568Z,99.90
2019-02-22T03:58:51.950Z,99.90
2019-02-22T04:01:21.424Z,99.90
2019-02-22T04:03:50.922Z,99.90
2019-02-22T04:06:20.384Z,99.90
2019-02-22T04:08:49.866Z,99.90
2019-02-22T04:11:19.371Z,99.90
2019-02-22T04:13:48.923Z,99.90
2019-02-22T04:18:53.063Z,99.90
2019-02-22T04:21:22.558Z,99.90
2019-02-22T04:23:53.030Z,99.90
2019-02-22T04:26:22.493Z,99.90
2019-02-22T04:28:53.576Z,99.90
2019-02-22T04:31:23.327Z,99.90
2019-02-22T04:33:52.795Z,99.90
2019-02-22T04:36:22.412Z,99.90
2019-02-22T04:38:51.888Z,99.90
2019-02-22T04:41:21.365Z,99.90
2019-02-22T04:43:50.871Z,99.90
2019-02-22T04:46:20.346Z,99.90
2019-02-22T04:49:09.192Z,99.90
2019-02-22T04:51:38.676Z,99.90
2019-02-22T04:54:08.222Z,99.90
2019-02-22T04:56:37.695Z,99.90
2019-02-22T04:59:07.183Z,99.90
2019-02-22T05:01:36.667Z,99.90
2019-02-22T05:04:06.173Z,99.90
2019-02-22T05:06:35.633Z,99.90
2019-02-22T05:09:05.622Z,99.90
2019-02-22T05:11:35.209Z,99.90
2019-02-22T05:14:04.797Z,99.90
2019-02-22T05:16:34.243Z,99.90
2019-02-22T05:19:03.743Z,99.90
2019-02-22T05:21:33.306Z,99.90
2019-02-22T05:24:02.889Z,99.90
2019-02-22T05:26:32.413Z,99.90
2019-02-22T05:29:01.883Z,99.90
2019-02-22T05:31:31.362Z,99.90
2019-02-22T05:34:00.862Z,99.90
2019-02-22T05:36:30.336Z,99.90
2019-02-22T05:38:59.718Z,99.90
2019-02-22T05:41:29.309Z,99.90
2019-02-22T05:43:58.753Z,99.90
2019-02-22T05:46:28.267Z,99.90
2019-02-22T05:48:57.699Z,99.90
2019-02-22T05:51:27.175Z,99.90
2019-02-22T05:53:56.593Z,99.90
2019-02-22T05:56:26.002Z,99.90
2019-02-22T05:58:55.467Z,99.90
2019-02-22T06:01:24.978Z,99.90
2019-02-22T06:03:54.411Z,99.90
2019-02-22T06:06:23.875Z,99.90
2019-02-22T06:08:53.332Z,99.90
2019-02-22T06:11:22.897Z,99.90
2019-02-22T06:13:52.375Z,99.90
2019-02-22T06:16:21.850Z,99.90
2019-02-22T06:18:51.330Z,99.90
2019-02-22T06:21:20.797Z,99.90
2019-02-22T06:23:50.618Z,99.90
2019-02-22T06:26:20.115Z,99.90
2019-02-22T06:28:49.686Z,99.90
2019-02-22T06:31:19.148Z,99.90
2019-02-22T06:33:48.641Z,99.90
2019-02-22T06:36:18.107Z,99.90
2019-02-22T06:38:47.508Z,99.90
2019-02-22T06:41:17.004Z,99.90
2019-02-22T06:43:46.460Z,99.90
2019-02-22T06:46:15.926Z,99.90
2019-02-22T06:48:45.417Z,99.90
2019-02-22T06:51:14.998Z,99.90
2019-02-22T06:53:44.469Z,99.90
2019-02-22T06:56:13.950Z,99.90
2019-02-22T06:58:43.417Z,99.90
2019-02-22T07:01:12.876Z,99.90
2019-02-22T07:03:42.349Z,99.90
2019-02-22T07:06:11.983Z,99.90
2019-02-22T07:08:41.438Z,99.90
2019-02-22T07:11:12.521Z,99.90
2019-02-22T07:13:41.972Z,99.90
2019-02-22T07:16:11.360Z,99.90
2019-02-22T07:18:40.786Z,99.90
2019-02-22T07:21:10.245Z,99.90
2019-02-22T07:23:39.631Z,99.90
2019-02-22T07:26:09.121Z,99.90
2019-02-22T07:28:38.587Z,99.90
2019-02-22T07:31:08.134Z,99.90
2019-02-22T07:33:37.626Z,99.90
2019-02-22T07:36:07.082Z,99.90
2019-02-22T07:38:36.555Z,99.90
2019-02-22T07:41:06.041Z,99.90
2019-02-22T07:43:35.512Z,99.90
2019-02-22T07:46:04.974Z,99.90
2019-02-22T07:48:34.463Z,99.90
2019-02-22T07:51:03.932Z,99.90
2019-02-22T07:53:33.405Z,99.90
2019-02-22T07:56:02.888Z,99.90
2019-02-22T07:58:32.351Z,99.90
2019-02-22T08:01:01.904Z,99.90
2019-02-22T08:03:31.387Z,99.90
2019-02-22T08:06:00.844Z,99.90
2019-02-22T08:08:30.314Z,99.90
2019-02-22T08:10:59.924Z,99.90
2019-02-22T08:13:29.386Z,99.90
2019-02-22T08:15:58.867Z,99.90
2019-02-22T08:18:28.354Z,99.90
2019-02-22T08:20:57.843Z,99.90
2019-02-22T08:23:27.293Z,99.90
2019-02-22T08:25:56.896Z,99.90
2019-02-22T08:28:26.361Z,99.90
2019-02-22T08:30:55.927Z,99.90
2019-02-22T08:33:25.460Z,99.90
2019-02-22T08:35:54.950Z,99.90
2019-02-22T08:38:24.408Z,99.90
2019-02-22T08:40:53.906Z,99.90
2019-02-22T08:43:31.108Z,99.90
2019-02-22T08:45:54.572Z,99.90
2019-02-22T08:48:24.068Z,99.90
2019-02-22T08:50:53.567Z,99.90
2019-02-22T08:53:23.054Z,99.90
2019-02-22T08:55:52.552Z,99.90
2019-02-22T08:58:22.015Z,99.90
2019-02-22T09:00:51.474Z,99.90
2019-02-22T09:03:20.985Z,99.90
2019-02-22T09:05:50.377Z,99.90
2019-02-22T09:08:19.850Z,99.90
2019-02-22T09:11:00.100Z,99.90
2019-02-22T09:13:20.834Z,99.90
2019-02-22T09:15:50.230Z,99.90
2019-02-22T09:18:19.759Z,99.90
2019-02-22T09:20:49.245Z,99.90
2019-02-22T09:23:18.722Z,99.90
2019-02-22T09:25:48.223Z,99.90
2019-02-22T09:28:17.630Z,99.90
2019-02-22T09:30:47.123Z,99.90
2019-02-22T09:33:16.606Z,99.90
2019-02-22T09:35:46.092Z,99.90
2019-02-22T09:38:15.559Z,99.90
2019-02-22T09:40:45.053Z,99.90
2019-02-22T09:43:14.518Z,99.90
2019-02-22T09:45:43.999Z,99.90
2019-02-22T09:48:13.511Z,99.90
2019-02-22T09:50:42.962Z,99.90
2019-02-22T09:53:12.444Z,99.90
2019-02-22T09:55:41.946Z,99.90
2019-02-22T09:58:11.480Z,99.90
2019-02-22T10:00:40.882Z,99.90
2019-02-22T10:03:10.369Z,99.90
2019-02-22T10:05:39.944Z,99.90
2019-02-22T10:08:09.410Z,99.90
2019-02-22T10:10:38.913Z,99.90
2019-02-22T10:13:08.386Z,99.90
2019-02-22T10:15:37.813Z,99.90
2019-02-22T10:18:07.330Z,99.90
2019-02-22T10:20:36.811Z,99.90
2019-02-22T10:23:06.412Z,99.90
2019-02-22T10:25:35.803Z,99.90
2019-02-22T10:28:05.266Z,99.90
2019-02-22T10:30:34.760Z,99.90
2019-02-22T10:33:04.228Z,99.90
2019-02-22T10:35:33.621Z,99.90
2019-02-22T10:38:03.120Z,99.90
2019-02-22T10:40:32.517Z,99.90
2019-02-22T10:43:01.994Z,99.90
2019-02-22T10:45:31.481Z,99.90
2019-02-22T10:48:00.955Z,99.90
2019-02-22T10:50:30.525Z,99.90
2019-02-22T10:53:02.487Z,99.90
2019-02-22T10:55:31.335Z,99.90
2019-02-22T10:58:00.791Z,99.90
2019-02-22T11:00:30.390Z,99.90
2019-02-22T11:02:59.867Z,99.90
2019-02-22T11:05:29.365Z,96.80
2019-02-22T11:07:58.845Z,93.70
2019-02-22T11:10:28.336Z,92.40
2019-02-22T11:12:57.789Z,90.90
2019-02-22T11:15:27.220Z,89.30
2019-02-22T11:17:56.796Z,89.10
2019-02-22T11:20:26.271Z,88.40
2019-02-22T11:22:55.763Z,88.20
2019-02-22T11:25:25.239Z,85.30
2019-02-22T11:27:54.702Z,82.50
2019-02-22T11:30:24.200Z,80.30
2019-02-22T11:32:53.662Z,76.80
2019-02-22T11:35:23.610Z,74.30
2019-02-22T11:37:53.202Z,70.80
2019-02-22T11:40:22.680Z,66.70
2019-02-22T11:42:52.142Z,65.20
2019-02-22T11:45:21.654Z,63.00
2019-02-22T11:47:51.120Z,64.10
2019-02-22T11:50:20.605Z,63.40
2019-02-22T11:52:50.113Z,57.20
2019-02-22T11:55:19.776Z,57.30
2019-02-22T11:57:49.242Z,56.90
2019-02-22T12:00:20.310Z,51.30
2019-02-22T12:02:49.784Z,47.20
2019-02-22T12:05:19.254Z,48.80
2019-02-22T12:07:48.757Z,45.80
2019-02-22T12:10:18.254Z,47.80
2019-02-22T12:12:47.737Z,48.40
2019-02-22T12:15:17.245Z,48.70
2019-02-22T12:17:46.715Z,50.40
2019-02-22T12:20:16.180Z,53.50
2019-02-22T12:22:45.681Z,56.10
2019-02-22T12:25:15.078Z,58.20
2019-02-22T12:27:44.552Z,60.00
2019-02-22T12:30:16.249Z,60.10
2019-02-22T12:32:45.781Z,60.10
2019-02-22T12:35:15.254Z,61.40
2019-02-22T12:37:44.756Z,61.50
2019-02-22T12:40:14.255Z,62.20
2019-02-22T12:42:43.734Z,62.30
2019-02-22T12:45:13.926Z,64.20
2019-02-22T12:47:43.416Z,64.50
2019-02-22T12:50:13.789Z,65.40
2019-02-22T12:52:43.287Z,64.50
2019-02-22T12:55:12.753Z,58.30
2019-02-22T12:57:42.212Z,51.20
2019-02-22T13:00:19.920Z,45.10
2019-02-22T13:02:49.384Z,46.10
2019-02-22T13:05:25.894Z,49.50
2019-02-22T13:07:55.367Z,52.80
2019-02-22T13:10:24.833Z,55.70
2019-02-22T13:12:54.355Z,57.70
2019-02-22T13:15:24.176Z,59.20
2019-02-22T13:17:53.675Z,60.50
2019-02-22T13:20:23.173Z,62.50
2019-02-22T13:22:53.051Z,63.50
2019-02-22T13:25:22.626Z,65.40
2019-02-22T13:27:52.233Z,66.50
2019-02-22T13:30:21.689Z,67.90
2019-02-22T13:32:51.172Z,67.60
2019-02-22T13:35:20.706Z,71.10
2019-02-22T13:37:50.209Z,75.00
2019-02-22T13:40:19.688Z,77.20
2019-02-22T13:42:49.189Z,76.50
2019-02-22T13:45:26.472Z,74.20
2019-02-22T13:47:50.027Z,70.30
2019-02-22T13:50:20.043Z,66.80
2019-02-22T13:52:49.510Z,63.70
2019-02-22T13:55:19.086Z,65.70
2019-02-22T13:57:48.696Z,65.70
2019-02-22T14:00:21.321Z,64.20
2019-02-22T14:02:50.791Z,64.50
2019-02-22T14:05:20.301Z,65.70
2019-02-22T14:07:52.525Z,67.60
2019-02-22T14:10:23.390Z,68.60
2019-02-22T14:12:53.066Z,70.00
2019-02-22T14:15:22.741Z,71.50
2019-02-22T14:17:52.241Z,72.20
2019-02-22T14:20:21.716Z,73.10
2019-02-22T14:22:52.091Z,74.50
2019-02-22T14:25:21.598Z,76.50
2019-02-22T14:27:51.068Z,78.00
2019-02-22T14:30:20.526Z,78.60
2019-02-22T14:32:50.061Z,79.40
2019-02-22T14:35:19.529Z,80.20
2019-02-22T14:37:49.288Z,80.90
2019-02-22T14:40:18.763Z,81.80
2019-02-22T14:42:48.349Z,81.80
2019-02-22T14:45:17.814Z,83.30
2019-02-22T14:47:47.331Z,84.00
2019-02-22T14:50:18.603Z,85.80
2019-02-22T14:52:48.093Z,86.00
2019-02-22T14:55:17.568Z,87.00
2019-02-22T14:57:47.114Z,87.90
2019-02-22T15:00:19.538Z,88.10
2019-02-22T15:02:49.024Z,88.90
2019-02-22T15:05:18.498Z,88.80
2019-02-22T15:07:48.214Z,89.50
2019-02-22T15:10:18.744Z,89.10
2019-02-22T15:12:48.649Z,89.30
2019-02-22T15:15:21.387Z,88.90
2019-02-22T15:17:55.192Z,87.30
2019-02-22T15:20:24.678Z,85.70
2019-02-22T15:22:54.096Z,84.00
2019-02-22T15:25:23.592Z,83.50
2019-02-22T15:27:53.160Z,83.00
2019-02-22T15:30:22.715Z,82.40
2019-02-22T15:32:52.330Z,82.30
2019-02-22T15:35:21.807Z,82.50
2019-02-22T15:37:51.278Z,81.70
2019-02-22T15:40:20.788Z,82.20
2019-02-22T15:42:50.182Z,82.30
2019-02-22T15:45:20.379Z,82.40
2019-02-22T15:47:49.850Z,82.70
2019-02-22T15:50:20.039Z,83.00
2019-02-22T15:52:50.623Z,83.50
2019-02-22T15:55:20.152Z,83.20
2019-02-22T15:57:49.672Z,83.20
2019-02-22T16:00:31.917Z,83.60
2019-02-22T16:03:01.392Z,83.80
2019-02-22T16:05:32.444Z,83.90
2019-02-22T16:08:01.939Z,84.50
2019-02-22T16:10:31.408Z,84.90
2019-02-22T16:13:00.883Z,85.20
2019-02-22T16:15:30.387Z,85.70
2019-02-22T16:17:59.858Z,86.10
2019-02-22T16:20:29.341Z,86.70
2019-02-22T16:22:58.836Z,86.80
2019-02-22T16:25:28.502Z,87.00
2019-02-22T16:27:57.991Z,87.10
2019-02-22T16:30:29.078Z,86.10
2019-02-22T16:32:58.662Z,85.70
2019-02-22T16:35:28.139Z,85.50
2019-02-22T16:37:57.582Z,84.70
2019-02-22T16:40:27.170Z,84.70
2019-02-22T16:42:56.574Z,85.40
2019-02-22T16:45:26.084Z,85.70
2019-02-22T16:47:55.556Z,86.00
2019-02-22T16:50:24.958Z,86.30
2019-02-22T16:52:54.458Z,86.70
2019-02-22T16:55:23.921Z,86.40
2019-02-22T16:57:53.399Z,86.30
2019-02-22T17:00:22.890Z,86.50
2019-02-22T17:02:52.326Z,88.00
2019-02-22T17:05:21.802Z,88.70
2019-02-22T17:07:51.291Z,88.90
2019-02-22T17:10:20.749Z,88.60
2019-02-22T17:12:50.221Z,88.20
2019-02-22T17:15:19.718Z,88.00
2019-02-22T17:17:49.176Z,87.10
2019-02-22T17:20:18.648Z,87.30
2019-02-22T17:22:48.131Z,87.40
2019-02-22T17:25:22.587Z,87.80
2019-02-22T17:27:52.169Z,87.70
2019-02-22T17:30:24.225Z,87.30
2019-02-22T17:32:53.695Z,87.30
2019-02-22T17:35:23.162Z,86.20
2019-02-22T17:37:52.658Z,86.70
2019-02-22T17:40:25.738Z,86.60
2019-02-22T17:42:55.218Z,85.90
2019-02-22T17:45:24.752Z,85.20
2019-02-22T17:47:54.233Z,85.60
2019-02-22T17:50:23.699Z,85.60
2019-02-22T17:52:53.182Z,83.90
2019-02-22T17:55:22.662Z,84.00
2019-02-22T17:57:52.116Z,83.30
2019-02-22T18:00:23.176Z,83.10
2019-02-22T18:02:52.636Z,82.70
2019-02-22T18:05:22.092Z,81.30
2019-02-22T18:07:51.587Z,81.30
2019-02-22T18:10:21.054Z,81.00
2019-02-22T18:12:50.727Z,79.90
2019-02-22T18:15:20.219Z,79.80
2019-02-22T18:17:49.708Z,80.60
2019-02-22T18:20:19.229Z,81.00
2019-02-22T18:22:48.721Z,81.20
2019-02-22T18:25:18.182Z,80.00
2019-02-22T18:27:47.654Z,79.10
2019-02-22T18:30:23.058Z,78.40
2019-02-22T18:32:52.555Z,78.40
2019-02-22T18:35:22.028Z,78.50
2019-02-22T18:37:51.537Z,78.10
2019-02-22T18:40:22.902Z,77.90
2019-02-22T18:42:52.494Z,76.90
2019-02-22T18:45:22.073Z,76.60
2019-02-22T18:47:51.546Z,76.20
2019-02-22T18:50:21.017Z,76.60
2019-02-22T18:52:50.508Z,77.10
2019-02-22T18:55:19.967Z,77.00
2019-02-22T18:57:49.435Z,76.60
2019-02-22T19:00:20.724Z,74.90
2019-02-22T19:02:50.495Z,74.70
2019-02-22T19:05:19.964Z,73.50
2019-02-22T19:07:49.463Z,72.60
2019-02-22T19:10:20.034Z,73.10
2019-02-22T19:12:49.596Z,72.20
2019-02-22T19:15:19.126Z,71.60
2019-02-22T19:17:48.674Z,71.30
2019-02-22T19:20:20.532Z,70.90
2019-02-22T19:22:50.046Z,71.50
2019-02-22T19:25:19.627Z,71.80
2019-02-22T19:27:49.212Z,69.20
2019-02-22T19:30:23.807Z,69.00
2019-02-22T19:32:53.341Z,68.90
2019-02-22T19:35:22.796Z,68.40
2019-02-22T19:37:52.279Z,66.10
2019-02-22T19:40:27.152Z,65.50
2019-02-22T19:42:56.670Z,63.80
2019-02-22T19:45:26.128Z,60.60
2019-02-22T19:47:55.687Z,59.60
2019-02-22T19:50:25.193Z,59.60
2019-02-22T19:52:56.567Z,59.00
2019-02-22T19:55:25.956Z,58.30
2019-02-22T19:57:55.444Z,58.60
2019-02-22T20:00:24.909Z,57.00
2019-02-22T20:02:54.377Z,55.10
2019-02-22T20:05:23.864Z,55.30
2019-02-22T20:07:53.323Z,55.60
2019-02-22T20:10:24.080Z,54.80
2019-02-22T20:12:53.515Z,55.20
2019-02-22T20:15:22.983Z,55.30
2019-02-22T20:17:54.588Z,55.00
2019-02-22T20:20:23.681Z,54.80
2019-02-22T20:22:53.147Z,54.90
2019-02-22T20:25:22.618Z,55.20
2019-02-22T20:27:52.103Z,55.50
2019-02-22T20:30:21.564Z,56.00
2019-02-22T20:32:51.034Z,56.50
2019-02-22T20:35:28.342Z,56.70
2019-02-22T20:37:57.809Z,56.50
2019-02-22T20:40:27.282Z,57.10
2019-02-22T20:42:56.901Z,57.50
2019-02-22T20:45:26.367Z,57.50
2019-02-22T20:48:04.688Z,57.50
2019-02-22T20:50:27.045Z,57.70
2019-02-22T20:52:56.537Z,57.60
2019-02-22T20:55:26.038Z,57.60
2019-02-22T20:57:55.531Z,57.80
2019-02-22T21:00:27.293Z,57.50
2019-02-22T21:02:56.764Z,58.00
2019-02-22T21:05:26.282Z,59.00
2019-02-22T21:07:55.780Z,61.40
2019-02-22T21:10:25.473Z,59.80
2019-02-22T21:12:54.960Z,59.10
2019-02-22T21:15:24.460Z,58.10
2019-02-22T21:17:53.959Z,57.60
2019-02-22T21:20:23.892Z,57.70
2019-02-22T21:22:53.353Z,58.00
2019-02-22T21:25:22.857Z,58.50
2019-02-22T21:27:52.322Z,58.60
2019-02-22T21:30:22.151Z,58.70
2019-02-22T21:32:51.644Z,58.80
2019-02-22T21:35:21.205Z,58.90
2019-02-22T21:37:50.672Z,59.20
2019-02-22T21:40:20.166Z,59.60
2019-02-22T21:42:49.642Z,59.70
2019-02-22T21:45:19.167Z,60.10
2019-02-22T21:47:54.811Z,60.30
2019-02-22T21:50:19.884Z,60.00
2019-02-22T21:52:49.343Z,60.60
2019-02-22T21:55:18.855Z,60.60
2019-02-22T21:57:48.319Z,60.50
2019-02-22T22:00:31.227Z,61.60
2019-02-22T22:03:00.758Z,60.40
2019-02-22T22:05:30.219Z,60.50
2019-02-22T22:07:59.744Z,60.50
2019-02-22T22:10:29.325Z,60.30
2019-02-22T22:12:58.786Z,60.10
2019-02-22T22:15:28.321Z,60.80
2019-02-22T22:17:57.803Z,60.90
2019-02-22T22:20:27.275Z,60.10
2019-02-22T22:22:56.761Z,60.30
2019-02-22T22:25:26.219Z,60.20
2019-02-22T22:27:55.699Z,60.50
2019-02-22T22:30:25.204Z,60.90
2019-02-22T22:32:54.673Z,60.10
2019-02-22T22:35:24.130Z,59.60
2019-02-22T22:37:53.725Z,59.60
2019-02-22T22:40:23.133Z,59.70
2019-02-22T22:42:52.746Z,58.80
2019-02-22T22:45:22.294Z,58.50
2019-02-22T22:47:51.807Z,57.70
2019-02-22T22:50:21.280Z,58.20
2019-02-22T22:52:50.768Z,58.60
2019-02-22T22:55:20.235Z,58.10
2019-02-22T22:57:49.669Z,57.70
2019-02-22T23:00:40.142Z,57.50
2019-02-22T23:03:09.696Z,57.20
2019-02-22T23:05:39.165Z,57.40
2019-02-22T23:08:08.672Z,57.60
2019-02-22T23:10:38.143Z,56.00
2019-02-22T23:13:07.606Z,56.50
2019-02-22T23:15:37.097Z,55.40
2019-02-22T23:18:06.557Z,55.30
2019-02-22T23:20:36.027Z,55.40
2019-02-22T23:23:05.528Z,55.10
2019-02-22T23:25:35.101Z,55.60
2019-02-22T23:28:04.564Z,56.40
2019-02-22T23:30:34.120Z,56.50
2019-02-22T23:33:03.528Z,56.50
2019-02-22T23:35:33.012Z,57.50
2019-02-22T23:38:02.501Z,56.30
2019-02-22T23:40:31.959Z,56.60
2019-02-22T23:43:01.428Z,56.80
2019-02-22T23:45:30.909Z,56.30
2019-02-22T23:48:00.378Z,56.20
2019-02-22T23:50:29.861Z,56.00
2019-02-22T23:52:59.358Z,56.50
2019-02-22T23:55:28.826Z,55.40
2019-02-22T23:57:59.294Z,56.20
